This is the latest recevied weather packets stored in our database for station/object SR8NGO-1. If no packets are shown the sender has not sent any weather packets the latest 10 day(s).
| Time | Temp. | Humidity | Pressure | Rain* | Wind** | Luminosity | Snow |
|---|---|---|---|---|---|---|---|
| 1778091409 | 18.89° C | 47% | 996.9 hPa | 125.98 mm | - | - | - |
| 1778091169 | 18.89° C | 46% | 996.9 hPa | 125.98 mm | - | - | - |
| 1778090929 | 18.89° C | 46% | 996.9 hPa | 125.98 mm | - | - | - |
| 1778090689 | 18.89° C | 46% | 996.9 hPa | 125.98 mm | - | - | - |
| 1778090449 | 18.89° C | 45% | 996.8 hPa | 127 mm | - | - | - |
| 1778090209 | 18.89° C | 45% | 996.8 hPa | 127 mm | - | - | - |
| 1778089969 | 18.89° C | 45% | 996.8 hPa | 128.02 mm | - | - | - |
| 1778089729 | 18.89° C | 45% | 996.7 hPa | 128.02 mm | - | - | - |
| 1778089489 | 20° C | 44% | 996.7 hPa | 130.05 mm | - | - | - |
| 1778089249 | 20° C | 44% | 996.7 hPa | 131.06 mm | - | - | - |
| 1778089009 | 21.11° C | 44% | 996.7 hPa | 132.08 mm | - | - | - |
| 1778088769 | 21.11° C | 43% | 996.6 hPa | 133.1 mm | - | - | - |
| 1778088529 | 22.22° C | 43% | 996.6 hPa | 134.11 mm | - | - | - |
| 1778088289 | 22.22° C | 43% | 996.6 hPa | 134.11 mm | - | - | - |
| 1778088049 | 22.78° C | 43% | 996.5 hPa | 134.87 mm | - | - | - |
| 1778087809 | 22.78° C | 43% | 996.6 hPa | 135.89 mm | - | - | - |
| 1778087569 | 22.78° C | 43% | 996.6 hPa | 137.92 mm | - | - | - |
| 1778087329 | 22.78° C | 43% | 996.6 hPa | 137.92 mm | - | - | - |
| 1778087089 | 22.22° C | 43% | 996.6 hPa | 137.92 mm | - | - | - |
| 1778086849 | 22.78° C | 42% | 996.6 hPa | 137.92 mm | - | - | - |
| 1778086609 | 23.89° C | 42% | 996.5 hPa | 137.92 mm | - | - | - |
| 1778086369 | 22.22° C | 42% | 996.5 hPa | 135.89 mm | - | - | - |
| 1778086129 | 22.78° C | 42% | 996.5 hPa | 136.91 mm | - | - | - |
| 1778085889 | 25° C | 42% | 996.5 hPa | 137.92 mm | - | - | - |
| 1778085649 | 25° C | 42% | 996.5 hPa | 137.92 mm | - | - | - |
* Rain latest hour (hover to see other rain measurements)
** Current wind speed in m/s (hover to see current wind gust speed)